sensor_id;sensor_type;location;lat;lon;timestamp;pressure;altitude;pressure_sealevel;temperature;humidity
76132;BME280;64877;50.994;13.650;2022-12-18T00:01:30;101241.97;;;-8.43;73.97
76132;BME280;64877;50.994;13.650;2022-12-18T00:03:57;101245.44;;;-8.44;73.42
76132;BME280;64877;50.994;13.650;2022-12-18T00:06:23;101250.88;;;-8.35;72.48
76132;BME280;64877;50.994;13.650;2022-12-18T00:08:49;101258.53;;;-8.44;73.26
76132;BME280;64877;50.994;13.650;2022-12-18T00:11:17;101265.19;;;-8.57;74.23
76132;BME280;64877;50.994;13.650;2022-12-18T00:13:42;101263.31;;;-8.61;75.29
76132;BME280;64877;50.994;13.650;2022-12-18T00:16:13;101275.78;;;-8.52;75.55
76132;BME280;64877;50.994;13.650;2022-12-18T00:18:39;101278.41;;;-8.51;75.68
76132;BME280;64877;50.994;13.650;2022-12-18T00:21:06;101272.28;;;-8.53;75.73
76132;BME280;64877;50.994;13.650;2022-12-18T00:23:34;101266.56;;;-8.37;74.00
76132;BME280;64877;50.994;13.650;2022-12-18T00:26:07;101268.06;;;-8.46;73.50
76132;BME280;64877;50.994;13.650;2022-12-18T00:28:32;101265.22;;;-8.55;73.57
76132;BME280;64877;50.994;13.650;2022-12-18T00:33:26;101268.66;;;-8.58;75.43
76132;BME280;64877;50.994;13.650;2022-12-18T00:35:52;101267.00;;;-8.54;74.88
76132;BME280;64877;50.994;13.650;2022-12-18T00:38:17;101273.38;;;-8.45;72.70
76132;BME280;64877;50.994;13.650;2022-12-18T00:40:43;101277.63;;;-8.48;71.91
76132;BME280;64877;50.994;13.650;2022-12-18T00:43:09;101277.38;;;-8.57;71.74
76132;BME280;64877;50.994;13.650;2022-12-18T00:45:34;101271.94;;;-8.65;72.24
76132;BME280;64877;50.994;13.650;2022-12-18T00:47:59;101271.66;;;-8.76;71.67
76132;BME280;64877;50.994;13.650;2022-12-18T00:50:25;101282.56;;;-8.92;71.84
76132;BME280;64877;50.994;13.650;2022-12-18T00:52:51;101279.03;;;-8.94;73.35
76132;BME280;64877;50.994;13.650;2022-12-18T00:55:17;101281.94;;;-8.83;74.41
76132;BME280;64877;50.994;13.650;2022-12-18T00:57:42;101284.69;;;-8.79;73.21
76132;BME280;64877;50.994;13.650;2022-12-18T01:00:11;101287.22;;;-8.82;72.76
76132;BME280;64877;50.994;13.650;2022-12-18T01:02:37;101299.19;;;-8.90;73.60
76132;BME280;64877;50.994;13.650;2022-12-18T01:05:03;101296.63;;;-8.89;73.77
76132;BME280;64877;50.994;13.650;2022-12-18T01:07:28;101299.50;;;-8.79;73.07
76132;BME280;64877;50.994;13.650;2022-12-18T01:09:54;101297.81;;;-8.77;73.00
76132;BME280;64877;50.994;13.650;2022-12-18T01:12:19;101303.63;;;-8.88;73.99
76132;BME280;64877;50.994;13.650;2022-12-18T01:14:44;101314.88;;;-8.90;74.32
76132;BME280;64877;50.994;13.650;2022-12-18T01:17:10;101314.34;;;-8.80;74.47
76132;BME280;64877;50.994;13.650;2022-12-18T01:19:35;101308.69;;;-8.62;73.16
76132;BME280;64877;50.994;13.650;2022-12-18T01:22:01;101303.75;;;-8.83;73.51
76132;BME280;64877;50.994;13.650;2022-12-18T01:24:26;101307.28;;;-8.81;73.87
76132;BME280;64877;50.994;13.650;2022-12-18T01:26:51;101310.75;;;-8.82;74.06
76132;BME280;64877;50.994;13.650;2022-12-18T01:29:17;101311.78;;;-8.77;74.15
76132;BME280;64877;50.994;13.650;2022-12-18T01:31:42;101319.47;;;-8.83;75.06
76132;BME280;64877;50.994;13.650;2022-12-18T01:34:08;101312.53;;;-8.81;74.79
76132;BME280;64877;50.994;13.650;2022-12-18T01:36:36;101312.66;;;-8.76;74.99
76132;BME280;64877;50.994;13.650;2022-12-18T01:39:08;101312.50;;;-8.82;72.14
76132;BME280;64877;50.994;13.650;2022-12-18T01:41:35;101313.06;;;-8.94;72.74
76132;BME280;64877;50.994;13.650;2022-12-18T01:47:15;101309.00;;;-9.15;73.31
76132;BME280;64877;50.994;13.650;2022-12-18T01:49:43;101301.97;;;-9.16;72.99
76132;BME280;64877;50.994;13.650;2022-12-18T01:52:08;101303.94;;;-9.08;71.90
76132;BME280;64877;50.994;13.650;2022-12-18T01:54:34;101308.22;;;-9.11;71.87
76132;BME280;64877;50.994;13.650;2022-12-18T01:56:59;101300.31;;;-9.14;72.32
76132;BME280;64877;50.994;13.650;2022-12-18T01:59:26;101306.56;;;-9.08;73.12
76132;BME280;64877;50.994;13.650;2022-12-18T02:01:53;101307.88;;;-9.23;72.67
76132;BME280;64877;50.994;13.650;2022-12-18T02:04:22;101317.75;;;-9.13;73.18
76132;BME280;64877;50.994;13.650;2022-12-18T02:06:52;101312.38;;;-9.19;73.38
76132;BME280;64877;50.994;13.650;2022-12-18T02:09:35;101309.75;;;-9.19;74.00
76132;BME280;64877;50.994;13.650;2022-12-18T02:12:20;101311.94;;;-9.02;73.00
76132;BME280;64877;50.994;13.650;2022-12-18T02:14:58;101307.41;;;-9.09;72.63
76132;BME280;64877;50.994;13.650;2022-12-18T02:17:54;101299.44;;;-9.13;72.84
76132;BME280;64877;50.994;13.650;2022-12-18T02:20:24;101303.75;;;-9.15;72.12
76132;BME280;64877;50.994;13.650;2022-12-18T02:26:03;101315.19;;;-9.41;73.21
76132;BME280;64877;50.994;13.650;2022-12-18T02:28:41;101321.91;;;-9.49;73.13
76132;BME280;64877;50.994;13.650;2022-12-18T02:31:11;101325.91;;;-9.32;73.67
76132;BME280;64877;50.994;13.650;2022-12-18T02:33:39;101320.78;;;-9.29;73.55
76132;BME280;64877;50.994;13.650;2022-12-18T02:36:05;101326.75;;;-9.33;73.06
76132;BME280;64877;50.994;13.650;2022-12-18T02:38:33;101319.09;;;-9.27;73.02
76132;BME280;64877;50.994;13.650;2022-12-18T02:41:00;101321.06;;;-9.20;73.43
76132;BME280;64877;50.994;13.650;2022-12-18T02:43:25;101324.28;;;-9.28;73.23
76132;BME280;64877;50.994;13.650;2022-12-18T02:45:56;101324.94;;;-9.35;72.93
76132;BME280;64877;50.994;13.650;2022-12-18T02:48:26;101321.28;;;-9.41;73.77
76132;BME280;64877;50.994;13.650;2022-12-18T02:53:30;101333.53;;;-9.40;73.31
76132;BME280;64877;50.994;13.650;2022-12-18T02:56:15;101320.00;;;-9.25;72.22
76132;BME280;64877;50.994;13.650;2022-12-18T02:59:05;101321.28;;;-9.41;72.30
76132;BME280;64877;50.994;13.650;2022-12-18T03:04:10;101324.59;;;-9.46;75.12
76132;BME280;64877;50.994;13.650;2022-12-18T03:06:42;101331.69;;;-9.44;73.90
76132;BME280;64877;50.994;13.650;2022-12-18T03:09:15;101325.06;;;-9.31;72.44
76132;BME280;64877;50.994;13.650;2022-12-18T03:11:47;101334.50;;;-9.36;72.00
76132;BME280;64877;50.994;13.650;2022-12-18T03:14:36;101339.16;;;-9.26;71.15
76132;BME280;64877;50.994;13.650;2022-12-18T03:17:05;101335.38;;;-9.35;70.98
76132;BME280;64877;50.994;13.650;2022-12-18T03:19:33;101332.34;;;-9.21;72.45
76132;BME280;64877;50.994;13.650;2022-12-18T03:22:02;101330.66;;;-9.19;73.08
76132;BME280;64877;50.994;13.650;2022-12-18T03:24:29;101327.41;;;-9.40;74.21
76132;BME280;64877;50.994;13.650;2022-12-18T03:27:00;101330.97;;;-9.38;73.72
76132;BME280;64877;50.994;13.650;2022-12-18T03:29:48;101337.25;;;-9.31;72.06
76132;BME280;64877;50.994;13.650;2022-12-18T03:32:24;101340.41;;;-9.43;70.69
76132;BME280;64877;50.994;13.650;2022-12-18T03:34:53;101342.16;;;-9.42;71.02
76132;BME280;64877;50.994;13.650;2022-12-18T03:37:20;101333.75;;;-9.60;71.15
76132;BME280;64877;50.994;13.650;2022-12-18T03:39:45;101333.38;;;-9.73;71.59
76132;BME280;64877;50.994;13.650;2022-12-18T03:42:39;101340.94;;;-9.82;71.98
76132;BME280;64877;50.994;13.650;2022-12-18T03:45:32;101342.78;;;-9.79;71.70
76132;BME280;64877;50.994;13.650;2022-12-18T03:48:37;101346.34;;;-9.76;71.96
76132;BME280;64877;50.994;13.650;2022-12-18T03:51:15;101339.91;;;-9.87;72.17
76132;BME280;64877;50.994;13.650;2022-12-18T03:53:59;101350.50;;;-9.82;72.10
76132;BME280;64877;50.994;13.650;2022-12-18T03:56:28;101347.75;;;-9.87;73.31
76132;BME280;64877;50.994;13.650;2022-12-18T03:58:55;101347.09;;;-9.80;72.77
76132;BME280;64877;50.994;13.650;2022-12-18T04:01:26;101355.00;;;-9.78;72.37
76132;BME280;64877;50.994;13.650;2022-12-18T04:03:53;101355.22;;;-9.71;71.96
76132;BME280;64877;50.994;13.650;2022-12-18T04:06:20;101361.13;;;-9.76;72.75
76132;BME280;64877;50.994;13.650;2022-12-18T04:08:46;101352.31;;;-9.80;71.48
76132;BME280;64877;50.994;13.650;2022-12-18T04:11:12;101359.38;;;-9.77;71.58
76132;BME280;64877;50.994;13.650;2022-12-18T04:13:38;101360.91;;;-9.84;72.22
76132;BME280;64877;50.994;13.650;2022-12-18T04:16:04;101365.16;;;-9.87;71.43
76132;BME280;64877;50.994;13.650;2022-12-18T04:18:30;101362.97;;;-10.01;72.49
76132;BME280;64877;50.994;13.650;2022-12-18T04:20:56;101372.72;;;-9.95;72.39
76132;BME280;64877;50.994;13.650;2022-12-18T04:23:21;101363.56;;;-9.82;71.95
76132;BME280;64877;50.994;13.650;2022-12-18T04:25:47;101367.91;;;-9.83;71.28
76132;BME280;64877;50.994;13.650;2022-12-18T04:28:13;101375.88;;;-10.05;71.55
76132;BME280;64877;50.994;13.650;2022-12-18T04:30:38;101369.41;;;-9.90;70.92
76132;BME280;64877;50.994;13.650;2022-12-18T04:33:03;101376.16;;;-9.96;71.65
76132;BME280;64877;50.994;13.650;2022-12-18T04:35:29;101367.19;;;-10.04;71.74
76132;BME280;64877;50.994;13.650;2022-12-18T04:37:55;101375.03;;;-10.04;72.66
76132;BME280;64877;50.994;13.650;2022-12-18T04:40:20;101371.97;;;-10.18;72.65
76132;BME280;64877;50.994;13.650;2022-12-18T04:42:46;101375.66;;;-10.11;72.66
76132;BME280;64877;50.994;13.650;2022-12-18T04:45:11;101374.66;;;-10.15;72.02
76132;BME280;64877;50.994;13.650;2022-12-18T04:47:37;101382.56;;;-10.13;71.77
76132;BME280;64877;50.994;13.650;2022-12-18T04:50:02;101391.66;;;-10.02;72.79
76132;BME280;64877;50.994;13.650;2022-12-18T04:52:31;101389.53;;;-10.14;72.36
76132;BME280;64877;50.994;13.650;2022-12-18T04:54:56;101381.47;;;-10.20;72.19
76132;BME280;64877;50.994;13.650;2022-12-18T04:57:21;101374.50;;;-10.20;72.11
76132;BME280;64877;50.994;13.650;2022-12-18T04:59:47;101372.00;;;-10.17;70.95
76132;BME280;64877;50.994;13.650;2022-12-18T05:02:12;101380.41;;;-10.27;72.05
76132;BME280;64877;50.994;13.650;2022-12-18T05:04:38;101379.47;;;-10.29;71.84
76132;BME280;64877;50.994;13.650;2022-12-18T05:07:04;101379.47;;;-10.29;72.81
76132;BME280;64877;50.994;13.650;2022-12-18T05:09:29;101382.97;;;-10.28;73.04
76132;BME280;64877;50.994;13.650;2022-12-18T05:11:54;101376.03;;;-10.28;72.41
76132;BME280;64877;50.994;13.650;2022-12-18T05:14:20;101382.25;;;-10.23;72.71
76132;BME280;64877;50.994;13.650;2022-12-18T05:16:45;101377.50;;;-10.34;72.67
76132;BME280;64877;50.994;13.650;2022-12-18T05:19:11;101375.81;;;-10.34;71.65
76132;BME280;64877;50.994;13.650;2022-12-18T05:21:36;101379.47;;;-10.29;71.19
76132;BME280;64877;50.994;13.650;2022-12-18T05:24:02;101379.75;;;-10.45;72.63
76132;BME280;64877;50.994;13.650;2022-12-18T05:26:27;101384.59;;;-10.56;72.29
76132;BME280;64877;50.994;13.650;2022-12-18T05:28:52;101387.25;;;-10.54;72.75
76132;BME280;64877;50.994;13.650;2022-12-18T05:31:18;101387.91;;;-10.61;72.73
76132;BME280;64877;50.994;13.650;2022-12-18T05:33:43;101385.56;;;-10.54;71.79
76132;BME280;64877;50.994;13.650;2022-12-18T05:36:09;101375.75;;;-10.35;71.54
76132;BME280;64877;50.994;13.650;2022-12-18T05:38:37;101385.22;;;-10.39;71.66
76132;BME280;64877;50.994;13.650;2022-12-18T05:41:03;101378.72;;;-10.50;72.56
76132;BME280;64877;50.994;13.650;2022-12-18T05:43:29;101376.00;;;-10.53;72.58
76132;BME280;64877;50.994;13.650;2022-12-18T05:45:54;101379.34;;;-10.57;72.78
76132;BME280;64877;50.994;13.650;2022-12-18T05:48:21;101377.41;;;-10.63;73.57
76132;BME280;64877;50.994;13.650;2022-12-18T05:50:47;101375.78;;;-10.59;73.29
76132;BME280;64877;50.994;13.650;2022-12-18T05:53:16;101379.44;;;-10.54;72.68
76132;BME280;64877;50.994;13.650;2022-12-18T05:55:42;101389.81;;;-10.56;73.08
76132;BME280;64877;50.994;13.650;2022-12-18T05:58:10;101382.59;;;-10.39;71.41
76132;BME280;64877;50.994;13.650;2022-12-18T06:00:38;101392.22;;;-10.62;71.17
76132;BME280;64877;50.994;13.650;2022-12-18T06:03:08;101398.63;;;-10.78;72.19
76132;BME280;64877;50.994;13.650;2022-12-18T06:05:38;101402.22;;;-10.74;72.67
76132;BME280;64877;50.994;13.650;2022-12-18T06:08:04;101396.22;;;-10.96;72.50
76132;BME280;64877;50.994;13.650;2022-12-18T06:10:29;101406.59;;;-10.97;72.25
76132;BME280;64877;50.994;13.650;2022-12-18T06:12:55;101409.41;;;-10.91;72.41
76132;BME280;64877;50.994;13.650;2022-12-18T06:15:20;101408.25;;;-10.75;72.79
76132;BME280;64877;50.994;13.650;2022-12-18T06:17:46;101410.16;;;-10.71;72.40
76132;BME280;64877;50.994;13.650;2022-12-18T06:20:11;101412.50;;;-10.79;72.36
76132;BME280;64877;50.994;13.650;2022-12-18T06:22:36;101412.72;;;-10.73;72.44
76132;BME280;64877;50.994;13.650;2022-12-18T06:25:02;101424.00;;;-10.74;71.97
76132;BME280;64877;50.994;13.650;2022-12-18T06:27:27;101421.88;;;-10.84;72.56
76132;BME280;64877;50.994;13.650;2022-12-18T06:29:53;101424.31;;;-10.88;71.86
76132;BME280;64877;50.994;13.650;2022-12-18T06:32:18;101417.09;;;-10.72;71.27
76132;BME280;64877;50.994;13.650;2022-12-18T06:34:43;101423.53;;;-10.86;71.47
76132;BME280;64877;50.994;13.650;2022-12-18T06:37:09;101417.56;;;-10.83;72.33
76132;BME280;64877;50.994;13.650;2022-12-18T06:39:34;101421.13;;;-10.80;73.01
76132;BME280;64877;50.994;13.650;2022-12-18T06:41:59;101413.09;;;-10.86;73.21
76132;BME280;64877;50.994;13.650;2022-12-18T06:44:25;101417.56;;;-10.83;73.61
76132;BME280;64877;50.994;13.650;2022-12-18T06:46:50;101415.41;;;-10.70;74.42
76132;BME280;64877;50.994;13.650;2022-12-18T06:49:15;101417.81;;;-10.76;73.68
76132;BME280;64877;50.994;13.650;2022-12-18T06:51:42;101421.16;;;-10.56;72.60
76132;BME280;64877;50.994;13.650;2022-12-18T06:54:07;101424.84;;;-10.49;71.83
76132;BME280;64877;50.994;13.650;2022-12-18T06:56:33;101427.63;;;-10.45;70.45
76132;BME280;64877;50.994;13.650;2022-12-18T06:58:58;101433.47;;;-10.52;70.16
76132;BME280;64877;50.994;13.650;2022-12-18T07:01:24;101443.31;;;-10.69;70.22
76132;BME280;64877;50.994;13.650;2022-12-18T07:03:53;101446.63;;;-10.73;71.29
76132;BME280;64877;50.994;13.650;2022-12-18T07:06:21;101449.84;;;-10.80;70.91
76132;BME280;64877;50.994;13.650;2022-12-18T07:08:48;101448.06;;;-10.81;71.54
76132;BME280;64877;50.994;13.650;2022-12-18T07:11:14;101458.22;;;-10.88;72.02
76132;BME280;64877;50.994;13.650;2022-12-18T07:13:40;101446.06;;;-10.88;71.83
76132;BME280;64877;50.994;13.650;2022-12-18T07:18:31;101444.03;;;-10.95;72.45
76132;BME280;64877;50.994;13.650;2022-12-18T07:20:56;101445.81;;;-10.94;71.95
76132;BME280;64877;50.994;13.650;2022-12-18T07:23:22;101455.03;;;-11.04;73.03
76132;BME280;64877;50.994;13.650;2022-12-18T07:25:47;101446.06;;;-10.88;71.86
76132;BME280;64877;50.994;13.650;2022-12-18T07:28:12;101451.06;;;-10.70;71.21
76132;BME280;64877;50.994;13.650;2022-12-18T07:30:38;101453.75;;;-10.69;70.79
76132;BME280;64877;50.994;13.650;2022-12-18T07:33:03;101454.16;;;-10.80;71.26
76132;BME280;64877;50.994;13.650;2022-12-18T07:35:29;101464.59;;;-10.80;71.03
76132;BME280;64877;50.994;13.650;2022-12-18T07:37:54;101470.28;;;-10.68;69.99
76132;BME280;64877;50.994;13.650;2022-12-18T07:40:19;101466.84;;;-10.67;70.02
76132;BME280;64877;50.994;13.650;2022-12-18T07:42:45;101463.19;;;-10.72;71.35
76132;BME280;64877;50.994;13.650;2022-12-18T07:45:10;101467.50;;;-10.73;70.06
76132;BME280;64877;50.994;13.650;2022-12-18T07:47:36;101474.38;;;-10.75;70.73
76132;BME280;64877;50.994;13.650;2022-12-18T07:50:03;101467.72;;;-10.66;71.28
76132;BME280;64877;50.994;13.650;2022-12-18T07:52:29;101472.81;;;-10.70;70.83
76132;BME280;64877;50.994;13.650;2022-12-18T07:54:54;101482.69;;;-10.85;72.16
76132;BME280;64877;50.994;13.650;2022-12-18T07:57:20;101483.38;;;-10.66;71.78
76132;BME280;64877;50.994;13.650;2022-12-18T07:59:45;101478.91;;;-10.47;70.77
76132;BME280;64877;50.994;13.650;2022-12-18T08:02:11;101475.44;;;-10.46;70.74
76132;BME280;64877;50.994;13.650;2022-12-18T08:04:36;101473.91;;;-10.15;71.23
76132;BME280;64877;50.994;13.650;2022-12-18T08:07:01;101470.13;;;-9.99;71.55
76132;BME280;64877;50.994;13.650;2022-12-18T08:09:27;101466.88;;;-9.67;71.07
76132;BME280;64877;50.994;13.650;2022-12-18T08:11:52;101468.91;;;-9.58;71.80
76132;BME280;64877;50.994;13.650;2022-12-18T08:14:18;101465.53;;;-9.27;70.06
76132;BME280;64877;50.994;13.650;2022-12-18T08:16:43;101455.94;;;-8.99;69.04
76132;BME280;64877;50.994;13.650;2022-12-18T08:19:11;101443.22;;;-8.87;67.19
76132;BME280;64877;50.994;13.650;2022-12-18T08:21:37;101447.13;;;-8.73;68.42
76132;BME280;64877;50.994;13.650;2022-12-18T08:24:02;101448.44;;;-8.58;70.12
76132;BME280;64877;50.994;13.650;2022-12-18T08:26:30;101450.97;;;-8.30;70.15
76132;BME280;64877;50.994;13.650;2022-12-18T08:28:57;101452.25;;;-8.14;69.26
76132;BME280;64877;50.994;13.650;2022-12-18T08:31:24;101452.72;;;-7.96;68.86
76132;BME280;64877;50.994;13.650;2022-12-18T08:33:50;101451.84;;;-7.96;68.14
76132;BME280;64877;50.994;13.650;2022-12-18T08:36:17;101445.50;;;-7.71;68.13
76132;BME280;64877;50.994;13.650;2022-12-18T08:38:43;101441.91;;;-7.40;67.91
76132;BME280;64877;50.994;13.650;2022-12-18T08:41:10;101446.75;;;-7.21;68.36
76132;BME280;64877;50.994;13.650;2022-12-18T08:43:36;101443.19;;;-7.23;67.51
76132;BME280;64877;50.994;13.650;2022-12-18T08:46:22;101439.91;;;-7.13;67.04
76132;BME280;64877;50.994;13.650;2022-12-18T08:48:47;101440.13;;;-7.04;67.54
76132;BME280;64877;50.994;13.650;2022-12-18T08:51:13;101440.00;;;-6.70;67.04
76132;BME280;64877;50.994;13.650;2022-12-18T08:53:40;101442.22;;;-6.87;67.31
76132;BME280;64877;50.994;13.650;2022-12-18T08:56:06;101440.97;;;-6.65;67.03
76132;BME280;64877;50.994;13.650;2022-12-18T08:58:31;101447.91;;;-6.69;66.11
76132;BME280;64877;50.994;13.650;2022-12-18T09:01:04;101451.25;;;-6.76;67.17
76132;BME280;64877;50.994;13.650;2022-12-18T09:03:30;101439.28;;;-6.62;66.81
76132;BME280;64877;50.994;13.650;2022-12-18T09:05:55;101441.22;;;-6.52;66.45
76132;BME280;64877;50.994;13.650;2022-12-18T09:08:20;101433.63;;;-6.38;67.62
76132;BME280;64877;50.994;13.650;2022-12-18T09:10:48;101445.19;;;-6.31;67.06
76132;BME280;64877;50.994;13.650;2022-12-18T09:13:15;101448.81;;;-6.23;67.40
76132;BME280;64877;50.994;13.650;2022-12-18T09:15:45;101444.59;;;-6.15;65.92
76132;BME280;64877;50.994;13.650;2022-12-18T09:18:12;101456.81;;;-6.18;63.93
76132;BME280;64877;50.994;13.650;2022-12-18T09:20:39;101473.81;;;-6.01;64.99
76132;BME280;64877;50.994;13.650;2022-12-18T09:23:05;101475.72;;;-5.89;66.33
76132;BME280;64877;50.994;13.650;2022-12-18T09:25:31;101473.97;;;-5.90;69.43
76132;BME280;64877;50.994;13.650;2022-12-18T09:27:59;101472.41;;;-5.79;69.63
76132;BME280;64877;50.994;13.650;2022-12-18T09:30:25;101475.22;;;-5.68;67.78
76132;BME280;64877;50.994;13.650;2022-12-18T09:32:53;101469.44;;;-5.48;65.73
76132;BME280;64877;50.994;13.650;2022-12-18T09:35:19;101471.19;;;-5.50;65.93
76132;BME280;64877;50.994;13.650;2022-12-18T09:37:44;101468.16;;;-5.18;67.94
76132;BME280;64877;50.994;13.650;2022-12-18T09:40:22;101470.06;;;-5.11;63.22
76132;BME280;64877;50.994;13.650;2022-12-18T09:42:52;101454.34;;;-5.05;65.20
76132;BME280;64877;50.994;13.650;2022-12-18T09:45:19;101449.16;;;-4.99;63.87
76132;BME280;64877;50.994;13.650;2022-12-18T09:47:45;101449.28;;;-4.89;64.94
76132;BME280;64877;50.994;13.650;2022-12-18T09:50:29;101457.25;;;-4.85;64.45
76132;BME280;64877;50.994;13.650;2022-12-18T09:52:59;101453.09;;;-4.68;64.83
76132;BME280;64877;50.994;13.650;2022-12-18T09:55:36;101434.94;;;-4.45;64.71
76132;BME280;64877;50.994;13.650;2022-12-18T09:58:18;101434.31;;;-4.25;63.48
76132;BME280;64877;50.994;13.650;2022-12-18T10:00:45;101432.81;;;-3.99;63.04
76132;BME280;64877;50.994;13.650;2022-12-18T10:03:14;101433.59;;;-4.09;63.47
76132;BME280;64877;50.994;13.650;2022-12-18T10:06:22;101425.00;;;-3.88;63.13
76132;BME280;64877;50.994;13.650;2022-12-18T10:14:20;101406.25;;;-3.14;59.84
76132;BME280;64877;50.994;13.650;2022-12-18T10:20:01;101383.41;;;-3.04;59.97
76132;BME280;64877;50.994;13.650;2022-12-18T10:23:14;101380.69;;;-3.22;60.66
76132;BME280;64877;50.994;13.650;2022-12-18T10:28:25;101366.75;;;-2.91;60.67
76132;BME280;64877;50.994;13.650;2022-12-18T10:30:51;101363.97;;;-3.14;61.90
76132;BME280;64877;50.994;13.650;2022-12-18T10:33:21;101368.28;;;-3.29;62.88
76132;BME280;64877;50.994;13.650;2022-12-18T10:35:52;101360.34;;;-3.34;63.24
76132;BME280;64877;50.994;13.650;2022-12-18T10:40:55;101350.66;;;-3.36;63.78
76132;BME280;64877;50.994;13.650;2022-12-18T10:43:26;101345.38;;;-3.36;63.78
76132;BME280;64877;50.994;13.650;2022-12-18T10:46:12;101342.69;;;-3.40;64.08
76132;BME280;64877;50.994;13.650;2022-12-18T10:48:59;101339.16;;;-3.43;64.85
76132;BME280;64877;50.994;13.650;2022-12-18T10:51:31;101341.81;;;-3.39;64.70
76132;BME280;64877;50.994;13.650;2022-12-18T10:54:21;101343.63;;;-3.31;63.90
76132;BME280;64877;50.994;13.650;2022-12-18T10:56:47;101345.44;;;-3.24;64.56
76132;BME280;64877;50.994;13.650;2022-12-18T10:59:15;101340.19;;;-3.23;65.10
76132;BME280;64877;50.994;13.650;2022-12-18T11:04:22;101338.47;;;-3.12;64.50
76132;BME280;64877;50.994;13.650;2022-12-18T11:07:21;101345.59;;;-2.97;64.46
76132;BME280;64877;50.994;13.650;2022-12-18T11:09:40;101342.03;;;-3.02;64.99
76132;BME280;64877;50.994;13.650;2022-12-18T11:12:15;101335.94;;;-2.87;64.51
76132;BME280;64877;50.994;13.650;2022-12-18T11:14:45;101333.25;;;-2.96;65.91
76132;BME280;64877;50.994;13.650;2022-12-18T11:17:37;101320.06;;;-2.98;66.09
76132;BME280;64877;50.994;13.650;2022-12-18T11:20:34;101319.16;;;-2.94;65.36
76132;BME280;64877;50.994;13.650;2022-12-18T11:23:05;101301.50;;;-3.07;66.23
76132;BME280;64877;50.994;13.650;2022-12-18T11:25:36;101305.91;;;-3.06;66.45
76132;BME280;64877;50.994;13.650;2022-12-18T11:34:12;101299.78;;;-3.02;66.68
76132;BME280;64877;50.994;13.650;2022-12-18T11:36:45;101301.56;;;-2.92;66.68
76132;BME280;64877;50.994;13.650;2022-12-18T11:39:35;101299.81;;;-2.90;65.78
76132;BME280;64877;50.994;13.650;2022-12-18T11:47:15;101293.66;;;-2.93;67.32
76132;BME280;64877;50.994;13.650;2022-12-18T11:49:49;101301.59;;;-2.86;67.94
76132;BME280;64877;50.994;13.650;2022-12-18T11:52:19;101307.75;;;-2.83;67.58
76132;BME280;64877;50.994;13.650;2022-12-18T11:54:55;101313.94;;;-2.81;68.63
76132;BME280;64877;50.994;13.650;2022-12-18T12:08:21;101309.66;;;-2.37;65.07
76132;BME280;64877;50.994;13.650;2022-12-18T12:14:06;101321.16;;;-2.28;64.95
76132;BME280;64877;50.994;13.650;2022-12-18T12:16:42;101323.75;;;-2.36;65.16
76132;BME280;64877;50.994;13.650;2022-12-18T12:25:08;101320.25;;;-2.21;64.61
76132;BME280;64877;50.994;13.650;2022-12-18T12:27:39;101326.41;;;-2.19;65.11
76132;BME280;64877;50.994;13.650;2022-12-18T12:30:19;101326.44;;;-2.21;65.07
76132;BME280;64877;50.994;13.650;2022-12-18T12:32:49;101324.66;;;-2.22;66.25
76132;BME280;64877;50.994;13.650;2022-12-18T12:40:54;101336.13;;;-2.20;65.23
76132;BME280;64877;50.994;13.650;2022-12-18T12:46:07;101338.78;;;-2.20;64.52
76132;BME280;64877;50.994;13.650;2022-12-18T12:51:32;101322.00;;;-2.31;65.00
76132;BME280;64877;50.994;13.650;2022-12-18T12:53:59;101313.16;;;-2.39;65.89
76132;BME280;64877;50.994;13.650;2022-12-18T13:01:59;101322.91;;;-2.33;66.34
76132;BME280;64877;50.994;13.650;2022-12-18T13:04:35;101315.81;;;-2.35;66.60
76132;BME280;64877;50.994;13.650;2022-12-18T13:13:08;101315.81;;;-2.41;67.54
76132;BME280;64877;50.994;13.650;2022-12-18T13:23:31;101313.13;;;-2.59;66.71
76132;BME280;64877;50.994;13.650;2022-12-18T13:33:44;101317.56;;;-2.58;65.72
76132;BME280;64877;50.994;13.650;2022-12-18T13:38:38;101321.03;;;-2.64;66.10
76132;BME280;64877;50.994;13.650;2022-12-18T13:41:22;101319.25;;;-2.78;67.04
76132;BME280;64877;50.994;13.650;2022-12-18T13:43:54;101310.44;;;-2.71;66.96
76132;BME280;64877;50.994;13.650;2022-12-18T13:51:46;101301.66;;;-2.64;66.06
76132;BME280;64877;50.994;13.650;2022-12-18T13:54:33;101311.34;;;-2.68;65.87
76132;BME280;64877;50.994;13.650;2022-12-18T13:57:00;101319.28;;;-2.66;65.69
76132;BME280;64877;50.994;13.650;2022-12-18T13:59:34;101312.19;;;-2.69;65.85
76132;BME280;64877;50.994;13.650;2022-12-18T14:02:11;101310.47;;;-2.65;65.46
76132;BME280;64877;50.994;13.650;2022-12-18T14:04:38;101308.69;;;-2.71;65.65
76132;BME280;64877;50.994;13.650;2022-12-18T14:09:31;101315.69;;;-2.83;66.25
76132;BME280;64877;50.994;13.650;2022-12-18T14:12:00;101308.66;;;-2.75;65.63
76132;BME280;64877;50.994;13.650;2022-12-18T14:15:01;101312.13;;;-2.96;66.25
76132;BME280;64877;50.994;13.650;2022-12-18T14:17:27;101314.69;;;-3.08;66.32
76132;BME280;64877;50.994;13.650;2022-12-18T14:19:52;101320.91;;;-3.02;66.50
76132;BME280;64877;50.994;13.650;2022-12-18T14:22:24;101320.84;;;-3.17;66.79
76132;BME280;64877;50.994;13.650;2022-12-18T14:27:45;101309.31;;;-3.28;67.29
76132;BME280;64877;50.994;13.650;2022-12-18T14:33:09;101297.88;;;-3.30;67.25
76132;BME280;64877;50.994;13.650;2022-12-18T14:35:37;101281.94;;;-3.44;68.52
76132;BME280;64877;50.994;13.650;2022-12-18T14:38:22;101288.09;;;-3.45;68.17
76132;BME280;64877;50.994;13.650;2022-12-18T14:41:10;101295.97;;;-3.56;68.75
76132;BME280;64877;50.994;13.650;2022-12-18T14:43:37;101300.28;;;-3.64;68.56
76132;BME280;64877;50.994;13.650;2022-12-18T14:46:27;101299.38;;;-3.72;69.78
76132;BME280;64877;50.994;13.650;2022-12-18T14:48:53;101301.28;;;-3.53;68.91